createdAt,value
2023-05-16T00:00:07.019Z,6.57
2023-05-16T00:01:09.607Z,6.52
2023-05-16T00:02:14.572Z,6.48
2023-05-16T00:03:16.909Z,6.43
2023-05-16T00:04:24.981Z,6.39
2023-05-16T00:05:27.202Z,6.39
2023-05-16T00:06:32.169Z,6.37
2023-05-16T00:07:47.015Z,6.37
2023-05-16T00:08:51.926Z,6.40
2023-05-16T00:09:53.986Z,6.35
2023-05-16T00:10:58.749Z,6.31
2023-05-16T00:12:00.905Z,6.28
2023-05-16T00:13:05.676Z,6.26
2023-05-16T00:14:08.032Z,6.22
2023-05-16T00:15:15.679Z,6.20
2023-05-16T00:16:18.294Z,6.18
2023-05-16T00:17:23.609Z,6.20
2023-05-16T00:18:27.339Z,6.18
2023-05-16T00:19:35.791Z,6.15
2023-05-16T00:20:37.898Z,6.12
2023-05-16T00:21:43.010Z,6.10
2023-05-16T00:22:46.612Z,6.09
2023-05-16T00:23:51.534Z,6.07
2023-05-16T00:24:53.752Z,6.09
2023-05-16T00:25:58.385Z,6.09
2023-05-16T00:27:00.758Z,6.08
2023-05-16T00:28:05.785Z,6.07
2023-05-16T00:29:07.928Z,6.08
2023-05-16T00:30:13.676Z,6.04
2023-05-16T00:31:15.936Z,6.01
2023-05-16T00:32:21.779Z,6.02
2023-05-16T00:33:24.063Z,5.99
2023-05-16T00:34:28.775Z,5.98
2023-05-16T00:35:33.756Z,5.99
2023-05-16T00:36:38.782Z,5.96
2023-05-16T00:37:40.955Z,5.94
2023-05-16T00:38:45.895Z,5.89
2023-05-16T00:39:48.014Z,5.88
2023-05-16T00:40:52.682Z,5.85
2023-05-16T00:41:55.048Z,5.83
2023-05-16T00:42:59.855Z,5.84
2023-05-16T00:44:01.907Z,5.83
2023-05-16T00:45:07.127Z,5.82
2023-05-16T00:46:09.620Z,5.81
2023-05-16T00:47:14.910Z,5.78
2023-05-16T00:48:17.208Z,5.77
2023-05-16T00:49:22.506Z,5.75
2023-05-16T00:50:24.788Z,5.72
2023-05-16T00:51:32.577Z,5.69
2023-05-16T00:52:36.296Z,5.71
2023-05-16T00:53:41.036Z,5.67
2023-05-16T00:54:43.466Z,5.67
2023-05-16T00:55:48.728Z,5.70
2023-05-16T00:56:51.016Z,5.74
2023-05-16T00:57:56.030Z,5.75
2023-05-16T00:58:58.392Z,5.76
2023-05-16T01:00:03.152Z,5.75
2023-05-16T01:01:05.848Z,5.72
2023-05-16T01:02:10.705Z,5.72
2023-05-16T01:03:13.014Z,5.70
2023-05-16T01:04:17.906Z,5.69
2023-05-16T01:05:20.207Z,5.67
2023-05-16T01:06:25.070Z,5.65
2023-05-16T01:07:30.068Z,5.60
2023-05-16T01:08:35.065Z,5.57
2023-05-16T01:09:37.524Z,5.54
2023-05-16T01:10:51.819Z,5.54
2023-05-16T01:12:02.303Z,5.51
2023-05-16T01:13:14.432Z,5.48
2023-05-16T01:14:26.981Z,5.43
2023-05-16T01:15:35.693Z,5.41
2023-05-16T01:16:43.247Z,5.37
2023-05-16T01:17:56.369Z,5.37
2023-05-16T01:19:14.129Z,5.34
2023-05-16T01:20:31.950Z,5.29
2023-05-16T01:21:49.237Z,5.26
2023-05-16T01:23:08.500Z,5.26
2023-05-16T01:24:15.350Z,5.24
2023-05-16T01:25:35.194Z,5.28
2023-05-16T01:26:41.826Z,5.31
2023-05-16T01:27:48.438Z,5.31
2023-05-16T01:28:52.141Z,5.31
2023-05-16T01:29:58.925Z,5.32
2023-05-16T01:31:01.358Z,5.34
2023-05-16T01:32:06.157Z,5.36
2023-05-16T01:33:08.735Z,5.38
2023-05-16T01:34:13.439Z,5.41
2023-05-16T01:35:17.880Z,5.48
2023-05-16T01:36:28.425Z,5.51
2023-05-16T01:37:36.206Z,5.51
2023-05-16T01:38:47.597Z,5.53
2023-05-16T01:39:57.016Z,5.58
2023-05-16T01:41:07.262Z,5.56
2023-05-16T01:42:14.992Z,5.54
2023-05-16T01:43:23.948Z,5.52
2023-05-16T01:44:35.544Z,5.49
2023-05-16T01:45:40.215Z,5.47
2023-05-16T01:46:48.879Z,5.45
2023-05-16T01:47:59.601Z,5.45
2023-05-16T01:49:13.437Z,5.44
2023-05-16T01:50:18.199Z,5.44
2023-05-16T01:51:25.790Z,5.44
2023-05-16T01:52:32.799Z,5.45
2023-05-16T01:53:42.620Z,5.45
2023-05-16T01:54:47.471Z,5.44
2023-05-16T01:55:55.533Z,5.45
2023-05-16T01:56:59.037Z,5.46
2023-05-16T01:58:08.262Z,5.48
2023-05-16T01:59:14.272Z,5.52
2023-05-16T02:00:16.689Z,5.54
2023-05-16T02:01:21.416Z,5.58
2023-05-16T02:02:23.545Z,5.64
2023-05-16T02:03:28.391Z,5.69
2023-05-16T02:04:30.778Z,5.72
2023-05-16T02:05:35.811Z,5.75
2023-05-16T02:06:37.937Z,5.77
2023-05-16T02:07:42.744Z,5.80
2023-05-16T02:08:45.003Z,5.80
2023-05-16T02:09:49.759Z,5.80
2023-05-16T02:10:51.900Z,5.82
2023-05-16T02:11:56.655Z,5.83
2023-05-16T02:13:01.336Z,5.85
2023-05-16T02:14:06.181Z,5.88
2023-05-16T02:15:14.697Z,5.92
2023-05-16T02:16:16.769Z,5.96
2023-05-16T02:17:22.207Z,6.00
2023-05-16T02:18:24.447Z,6.01
2023-05-16T02:19:29.362Z,6.02
2023-05-16T02:20:31.829Z,6.04
2023-05-16T02:21:36.513Z,6.07
2023-05-16T02:22:47.264Z,6.07
2023-05-16T02:23:51.991Z,6.08
2023-05-16T02:24:54.531Z,6.10
2023-05-16T02:25:59.281Z,6.13
2023-05-16T02:27:01.916Z,6.15
2023-05-16T02:28:06.984Z,6.16
2023-05-16T02:29:11.785Z,6.18
2023-05-16T02:30:16.858Z,6.20
2023-05-16T02:31:34.982Z,6.22
2023-05-16T02:32:39.694Z,6.21
2023-05-16T02:33:42.322Z,6.20
2023-05-16T02:34:47.075Z,6.19
2023-05-16T02:35:49.203Z,6.16
2023-05-16T02:36:53.871Z,6.14
2023-05-16T02:37:57.739Z,6.12
2023-05-16T02:39:02.437Z,6.11
2023-05-16T02:40:05.955Z,6.10
2023-05-16T02:41:10.829Z,6.08
2023-05-16T02:42:13.786Z,6.08
2023-05-16T02:43:19.025Z,6.07
2023-05-16T02:44:23.983Z,6.06
2023-05-16T02:45:28.875Z,6.07
2023-05-16T02:46:34.388Z,6.10
2023-05-16T02:47:39.205Z,6.10
2023-05-16T02:48:41.305Z,6.08
2023-05-16T02:49:46.030Z,6.06
2023-05-16T02:50:48.274Z,6.03
2023-05-16T02:51:53.015Z,6.01
2023-05-16T02:52:55.057Z,5.98
2023-05-16T02:54:01.270Z,5.96
2023-05-16T02:55:20.925Z,5.91
2023-05-16T02:56:26.822Z,5.88
2023-05-16T02:57:28.941Z,5.87
2023-05-16T02:58:34.301Z,5.83
2023-05-16T02:59:39.366Z,5.80
2023-05-16T03:00:44.318Z,5.77
2023-05-16T03:01:49.290Z,5.75
2023-05-16T03:02:51.601Z,5.72
2023-05-16T03:03:56.734Z,5.71
2023-05-16T03:05:06.470Z,5.69
2023-05-16T03:06:11.275Z,5.62
2023-05-16T03:07:14.250Z,5.59
2023-05-16T03:08:19.152Z,5.54
2023-05-16T03:09:22.053Z,5.50
2023-05-16T03:10:26.705Z,5.49
2023-05-16T03:11:29.297Z,5.47
2023-05-16T03:12:34.230Z,5.46
2023-05-16T03:13:36.340Z,5.43
2023-05-16T03:14:43.590Z,5.38
2023-05-16T03:15:46.283Z,5.35
2023-05-16T03:16:51.067Z,5.33
2023-05-16T03:17:53.221Z,5.31
2023-05-16T03:18:57.999Z,5.29
2023-05-16T03:20:00.408Z,5.29
2023-05-16T03:21:06.024Z,5.28
2023-05-16T03:22:08.203Z,5.32
2023-05-16T03:23:13.068Z,5.35
2023-05-16T03:24:15.452Z,5.36
2023-05-16T03:25:20.259Z,5.39
2023-05-16T03:26:23.018Z,5.38
2023-05-16T03:27:29.997Z,5.43
2023-05-16T03:28:32.270Z,5.44
2023-05-16T03:29:37.025Z,5.42
2023-05-16T03:30:42.330Z,5.42
2023-05-16T03:31:47.038Z,5.43
2023-05-16T03:32:49.264Z,5.43
2023-05-16T03:33:53.955Z,5.41
2023-05-16T03:34:55.999Z,5.42
2023-05-16T03:36:00.964Z,5.40
2023-05-16T03:37:06.093Z,5.38
2023-05-16T03:38:08.470Z,5.36
2023-05-16T03:39:13.133Z,5.32
2023-05-16T03:40:15.330Z,5.30
2023-05-16T03:41:20.036Z,5.29
2023-05-16T03:42:22.271Z,5.32
2023-05-16T03:43:26.902Z,5.31
2023-05-16T03:44:28.978Z,5.31
2023-05-16T03:45:34.142Z,5.31
2023-05-16T03:46:41.603Z,5.31
2023-05-16T03:47:43.815Z,5.31
2023-05-16T03:48:48.623Z,5.29
2023-05-16T03:49:50.787Z,5.27
2023-05-16T03:50:55.777Z,5.25
2023-05-16T03:51:57.910Z,5.26
2023-05-16T03:53:02.650Z,5.29
2023-05-16T03:54:04.904Z,5.29
2023-05-16T03:55:10.856Z,5.31
2023-05-16T03:56:12.960Z,5.32
2023-05-16T03:57:17.679Z,5.34
2023-05-16T03:58:19.850Z,5.37
2023-05-16T03:59:24.534Z,5.38
2023-05-16T04:00:27.049Z,5.43
2023-05-16T04:01:31.782Z,5.46
2023-05-16T04:02:37.019Z,5.51
2023-05-16T04:03:41.899Z,5.55
2023-05-16T04:04:43.973Z,5.63
2023-05-16T04:05:48.718Z,5.68
2023-05-16T04:06:50.892Z,5.76
2023-05-16T04:07:55.627Z,5.80
2023-05-16T04:09:00.507Z,5.89
2023-05-16T04:10:02.907Z,6.00
2023-05-16T04:11:07.735Z,6.09
2023-05-16T04:12:12.602Z,6.11
2023-05-16T04:13:17.941Z,6.14
2023-05-16T04:14:20.267Z,6.19
2023-05-16T04:15:25.043Z,6.21
2023-05-16T04:16:27.464Z,6.27
2023-05-16T04:17:32.228Z,6.30
2023-05-16T04:18:37.099Z,6.34
2023-05-16T04:19:41.881Z,6.39
2023-05-16T04:20:44.866Z,6.44
2023-05-16T04:21:49.708Z,6.48
2023-05-16T04:22:54.380Z,6.54
2023-05-16T04:23:57.937Z,6.61
2023-05-16T04:25:02.926Z,6.67
2023-05-16T04:26:05.128Z,6.72
2023-05-16T04:27:10.632Z,6.76
2023-05-16T04:28:16.008Z,6.77
2023-05-16T04:29:18.149Z,6.80
2023-05-16T04:30:22.907Z,6.83
2023-05-16T04:31:26.191Z,6.75
2023-05-16T04:32:34.450Z,6.75
2023-05-16T04:33:39.160Z,6.80
2023-05-16T04:34:46.876Z,6.86
2023-05-16T04:35:52.143Z,6.86
2023-05-16T04:36:54.265Z,6.87
2023-05-16T04:37:58.966Z,6.88
2023-05-16T04:39:01.059Z,6.95
2023-05-16T04:40:07.552Z,6.97
2023-05-16T04:41:10.177Z,6.95
2023-05-16T04:42:14.939Z,6.98
2023-05-16T04:43:17.155Z,7.00
2023-05-16T04:44:22.101Z,6.96
2023-05-16T04:45:24.183Z,6.98
2023-05-16T04:46:29.028Z,6.98
2023-05-16T04:47:31.963Z,6.97
2023-05-16T04:48:36.979Z,6.96
2023-05-16T04:49:41.642Z,6.96
2023-05-16T04:50:46.387Z,6.96
2023-05-16T04:51:48.688Z,6.96
2023-05-16T04:52:55.741Z,6.99
2023-05-16T04:53:58.542Z,7.02
2023-05-16T04:55:03.351Z,7.05
2023-05-16T04:56:09.098Z,7.10
2023-05-16T04:57:11.191Z,7.12
2023-05-16T04:58:16.132Z,7.14
2023-05-16T04:59:18.239Z,7.18
2023-05-16T05:00:23.402Z,7.20
2023-05-16T05:01:25.722Z,7.23
2023-05-16T05:02:30.450Z,7.29
2023-05-16T05:03:32.740Z,7.32
2023-05-16T05:04:38.394Z,7.41
2023-05-16T05:05:43.239Z,7.44
2023-05-16T05:06:48.083Z,7.50
2023-05-16T05:07:50.193Z,7.49
2023-05-16T05:08:54.891Z,7.52
2023-05-16T05:09:57.001Z,7.56
2023-05-16T05:11:01.853Z,7.60
2023-05-16T05:12:04.527Z,7.65
2023-05-16T05:13:09.294Z,7.71
2023-05-16T05:14:11.455Z,7.76
2023-05-16T05:15:16.354Z,7.81
2023-05-16T05:16:18.458Z,7.84
2023-05-16T05:17:24.462Z,7.85
2023-05-16T05:18:26.780Z,7.85
2023-05-16T05:19:34.532Z,7.86
2023-05-16T05:20:39.404Z,7.96
2023-05-16T05:21:44.582Z,7.97
2023-05-16T05:22:49.257Z,8.05
2023-05-16T05:23:51.545Z,8.14
2023-05-16T05:24:56.378Z,8.20
2023-05-16T05:25:58.607Z,8.23
2023-05-16T05:27:03.347Z,8.29
2023-05-16T05:28:06.400Z,8.35
2023-05-16T05:29:11.235Z,8.47
2023-05-16T05:30:16.430Z,8.48
2023-05-16T05:31:18.483Z,8.59
2023-05-16T05:32:23.236Z,8.64
2023-05-16T05:33:28.287Z,8.63
2023-05-16T05:34:33.484Z,8.67
2023-05-16T05:35:35.761Z,8.74
2023-05-16T05:36:40.491Z,8.77
2023-05-16T05:37:47.982Z,8.85
2023-05-16T05:38:50.062Z,8.94
2023-05-16T05:39:54.741Z,9.05
2023-05-16T05:40:57.166Z,9.15
2023-05-16T05:42:02.572Z,9.25
2023-05-16T05:43:07.546Z,9.30
2023-05-16T05:44:09.684Z,9.34
2023-05-16T05:45:14.602Z,9.35
2023-05-16T05:46:17.472Z,9.43
2023-05-16T05:47:22.373Z,9.51
2023-05-16T05:48:24.659Z,9.56
2023-05-16T05:49:30.105Z,9.45
2023-05-16T05:50:32.260Z,9.65
2023-05-16T05:51:37.167Z,9.70
2023-05-16T05:52:39.451Z,9.82
2023-05-16T05:53:46.977Z,9.86
2023-05-16T05:55:03.868Z,9.81
2023-05-16T05:56:06.150Z,9.73
2023-05-16T05:57:11.176Z,9.91
2023-05-16T05:58:13.251Z,9.86
2023-05-16T05:59:18.224Z,9.99
2023-05-16T06:00:20.762Z,10.04
2023-05-16T06:01:25.516Z,10.15
2023-05-16T06:02:28.046Z,10.24
2023-05-16T06:03:33.041Z,10.30
2023-05-16T06:04:38.017Z,10.34
2023-05-16T06:05:40.157Z,10.35
2023-05-16T06:06:44.974Z,10.38
2023-05-16T06:07:47.099Z,10.45
2023-05-16T06:08:54.354Z,10.45
2023-05-16T06:09:56.544Z,10.52
2023-05-16T06:11:01.771Z,10.57
2023-05-16T06:12:04.486Z,10.64
2023-05-16T06:13:09.509Z,10.73
2023-05-16T06:14:11.587Z,10.77
2023-05-16T06:15:16.328Z,10.77
2023-05-16T06:16:18.564Z,10.84
2023-05-16T06:17:23.286Z,10.92
2023-05-16T06:18:25.372Z,10.83
2023-05-16T06:19:30.106Z,10.93
2023-05-16T06:20:32.354Z,10.93
2023-05-16T06:21:37.585Z,10.97
2023-05-16T06:22:39.766Z,10.92
2023-05-16T06:23:44.600Z,10.87
2023-05-16T06:24:49.436Z,10.96
2023-05-16T06:25:54.219Z,10.96
2023-05-16T06:26:58.901Z,10.93
2023-05-16T06:28:01.074Z,10.98
2023-05-16T06:29:05.776Z,10.99
2023-05-16T06:30:09.546Z,10.89
2023-05-16T06:31:14.388Z,10.98
2023-05-16T06:32:16.551Z,10.99
2023-05-16T06:33:21.273Z,10.97
2023-05-16T06:34:28.437Z,10.92
2023-05-16T06:35:33.189Z,10.86
2023-05-16T06:36:35.329Z,10.85
2023-05-16T06:37:43.348Z,10.85
2023-05-16T06:38:45.561Z,10.90
2023-05-16T06:39:53.044Z,10.88
2023-05-16T06:40:55.193Z,10.88
2023-05-16T06:41:59.858Z,10.88
2023-05-16T06:43:04.542Z,10.79
2023-05-16T06:44:09.260Z,10.84
2023-05-16T06:45:12.205Z,10.87
2023-05-16T06:46:16.957Z,10.94
2023-05-16T06:47:19.133Z,10.93
2023-05-16T06:48:24.036Z,10.91
2023-05-16T06:49:28.770Z,10.94
2023-05-16T06:50:30.911Z,11.04
2023-05-16T06:51:35.846Z,11.12
2023-05-16T06:52:37.978Z,10.98
2023-05-16T06:53:42.747Z,10.88
2023-05-16T06:54:45.132Z,10.87
2023-05-16T06:55:52.616Z,10.90
2023-05-16T06:56:54.767Z,10.95
2023-05-16T06:57:59.459Z,11.06
2023-05-16T06:59:02.341Z,11.13
2023-05-16T07:00:08.548Z,11.05
2023-05-16T07:01:13.361Z,10.97
2023-05-16T07:02:15.581Z,11.02
2023-05-16T07:03:20.419Z,11.11
2023-05-16T07:04:25.252Z,11.22
2023-05-16T07:05:27.502Z,11.18
2023-05-16T07:06:32.590Z,11.36
2023-05-16T07:07:34.832Z,11.39
2023-05-16T07:08:39.615Z,11.36
2023-05-16T07:09:41.813Z,11.40
2023-05-16T07:10:47.012Z,11.26
2023-05-16T07:11:51.734Z,11.23
2023-05-16T07:12:56.805Z,11.33
2023-05-16T07:14:01.496Z,11.43
2023-05-16T07:15:06.768Z,11.33
2023-05-16T07:16:09.314Z,11.38
2023-05-16T07:17:14.325Z,11.48
2023-05-16T07:18:19.054Z,11.42
2023-05-16T07:19:21.464Z,11.54
2023-05-16T07:20:26.572Z,11.29
2023-05-16T07:21:29.595Z,11.35
2023-05-16T07:22:34.364Z,11.52
2023-05-16T07:23:36.417Z,11.64
2023-05-16T07:24:41.184Z,11.73
2023-05-16T07:25:45.995Z,11.76
2023-05-16T07:26:48.057Z,11.93
2023-05-16T07:27:55.488Z,11.89
2023-05-16T07:28:58.022Z,11.90
2023-05-16T07:30:02.789Z,11.92
2023-05-16T07:31:08.649Z,11.97
2023-05-16T07:32:13.382Z,11.89
2023-05-16T07:33:15.636Z,11.64
2023-05-16T07:34:20.590Z,11.71
2023-05-16T07:35:22.728Z,11.71
2023-05-16T07:36:27.540Z,11.63
2023-05-16T07:37:31.115Z,11.57
2023-05-16T07:38:36.280Z,11.58
2023-05-16T07:39:40.959Z,11.56
2023-05-16T07:40:45.739Z,11.51
2023-05-16T07:41:47.894Z,11.58
2023-05-16T07:42:55.211Z,11.37
2023-05-16T07:43:59.930Z,11.41
2023-05-16T07:45:02.665Z,11.43
2023-05-16T07:46:08.187Z,11.54
2023-05-16T07:47:10.424Z,11.63
2023-05-16T07:48:15.274Z,11.64
2023-05-16T07:49:17.509Z,11.79
2023-05-16T07:50:22.298Z,11.74
2023-05-16T07:51:24.671Z,11.97
2023-05-16T07:52:29.519Z,12.15
2023-05-16T07:53:34.171Z,12.28
2023-05-16T07:54:39.234Z,12.41
2023-05-16T07:55:43.943Z,12.50
2023-05-16T07:56:48.785Z,12.52
2023-05-16T07:57:56.125Z,12.52
2023-05-16T07:58:58.269Z,12.38
2023-05-16T08:00:04.458Z,12.41
2023-05-16T08:01:06.854Z,12.48
2023-05-16T08:02:13.198Z,12.38
2023-05-16T08:03:15.717Z,12.35
2023-05-16T08:04:20.593Z,12.32
2023-05-16T08:05:22.929Z,12.45
2023-05-16T08:06:27.851Z,12.55
2023-05-16T08:07:32.569Z,12.39
2023-05-16T08:08:37.524Z,12.70
2023-05-16T08:09:39.709Z,12.74
2023-05-16T08:10:44.432Z,12.77
2023-05-16T08:11:49.152Z,12.62
2023-05-16T08:12:56.632Z,12.53
2023-05-16T08:14:01.445Z,12.42
2023-05-16T08:15:04.049Z,12.43
2023-05-16T08:16:09.606Z,12.19
2023-05-16T08:17:11.813Z,12.28
2023-05-16T08:18:18.841Z,12.15
2023-05-16T08:19:25.559Z,12.27
2023-05-16T08:20:31.135Z,12.24
2023-05-16T08:21:33.448Z,12.22
2023-05-16T08:22:38.191Z,12.23
2023-05-16T08:23:43.818Z,12.14
2023-05-16T08:24:46.186Z,12.15
2023-05-16T08:25:50.940Z,12.18
2023-05-16T08:26:53.060Z,12.17
2023-05-16T08:28:02.377Z,12.11
2023-05-16T08:29:07.712Z,12.08
2023-05-16T08:30:13.754Z,12.05
2023-05-16T08:31:16.016Z,12.11
2023-05-16T08:32:20.926Z,12.06
2023-05-16T08:33:23.119Z,12.04
2023-05-16T08:34:27.897Z,12.17
2023-05-16T08:35:32.617Z,12.25
2023-05-16T08:36:38.080Z,12.22
2023-05-16T08:37:40.218Z,11.98
2023-05-16T08:38:44.985Z,11.93
2023-05-16T08:39:47.264Z,11.94
2023-05-16T08:40:52.061Z,11.98
2023-05-16T08:41:57.290Z,11.99
2023-05-16T08:43:05.425Z,11.92
2023-05-16T08:44:07.776Z,11.98
2023-05-16T08:45:13.860Z,11.94
2023-05-16T08:46:23.452Z,11.91
2023-05-16T08:47:31.585Z,11.97
2023-05-16T08:48:37.502Z,11.72
2023-05-16T08:49:43.564Z,11.82
2023-05-16T08:50:48.273Z,11.79
2023-05-16T08:51:54.530Z,11.84
2023-05-16T08:53:00.588Z,11.97
2023-05-16T08:54:09.295Z,11.98
2023-05-16T08:55:14.640Z,12.12
2023-05-16T08:56:22.447Z,12.28
2023-05-16T08:57:24.776Z,12.58
2023-05-16T08:58:32.703Z,12.67
2023-05-16T08:59:35.867Z,12.73
2023-05-16T09:00:41.097Z,12.72
2023-05-16T09:01:44.595Z,12.82
2023-05-16T09:02:50.039Z,13.10
2023-05-16T09:03:53.150Z,13.10
2023-05-16T09:05:00.285Z,13.02
2023-05-16T09:06:03.164Z,12.96
2023-05-16T09:07:08.821Z,13.18
2023-05-16T09:08:13.536Z,13.23
2023-05-16T09:09:15.785Z,13.27
2023-05-16T09:10:21.147Z,13.08
2023-05-16T09:11:26.677Z,12.63
2023-05-16T09:12:28.908Z,12.74
2023-05-16T09:13:36.313Z,12.77
2023-05-16T09:14:41.172Z,12.80
2023-05-16T09:15:46.230Z,12.80
2023-05-16T09:17:06.620Z,12.66
2023-05-16T09:18:15.839Z,12.59
2023-05-16T09:19:20.614Z,12.62
2023-05-16T09:20:25.371Z,12.69
2023-05-16T09:21:29.264Z,12.69
2023-05-16T09:22:34.022Z,12.87
2023-05-16T09:23:39.124Z,12.85
2023-05-16T09:24:44.528Z,12.76
2023-05-16T09:25:49.730Z,12.68
2023-05-16T09:26:51.990Z,12.64
2023-05-16T09:27:57.160Z,12.52
2023-05-16T09:29:04.713Z,12.40
2023-05-16T09:30:08.926Z,12.36
2023-05-16T09:31:25.165Z,12.26
2023-05-16T09:32:29.971Z,12.28
2023-05-16T09:33:34.932Z,12.15
2023-05-16T09:34:39.597Z,12.17
2023-05-16T09:35:45.713Z,12.19
2023-05-16T09:36:54.619Z,12.22
2023-05-16T09:37:59.387Z,12.31
2023-05-16T09:39:06.888Z,12.17
2023-05-16T09:40:11.101Z,12.14
2023-05-16T09:41:15.780Z,11.86
2023-05-16T09:42:19.950Z,11.70
2023-05-16T09:43:29.906Z,11.80
2023-05-16T09:44:34.770Z,11.54
2023-05-16T09:45:39.854Z,11.58
2023-05-16T09:46:44.660Z,11.46
2023-05-16T09:47:47.061Z,11.48
2023-05-16T09:48:51.844Z,11.49
2023-05-16T09:49:54.385Z,11.55
2023-05-16T09:51:04.223Z,11.68
2023-05-16T09:52:07.144Z,11.75
2023-05-16T09:53:11.924Z,11.81
2023-05-16T09:54:16.680Z,11.63
2023-05-16T09:55:18.905Z,11.72
2023-05-16T09:56:23.627Z,11.73
2023-05-16T09:57:28.548Z,11.80
2023-05-16T09:58:32.098Z,12.00
2023-05-16T09:59:42.162Z,12.13
2023-05-16T10:00:44.744Z,12.16
2023-05-16T10:01:51.962Z,12.03
2023-05-16T10:03:01.510Z,12.07
2023-05-16T10:04:06.037Z,12.05
2023-05-16T10:05:11.606Z,12.21
2023-05-16T10:06:16.816Z,12.19
2023-05-16T10:07:24.406Z,12.25
2023-05-16T10:08:30.400Z,12.39
2023-05-16T10:09:33.879Z,12.52
2023-05-16T10:10:40.579Z,12.41
2023-05-16T10:11:46.544Z,12.57
2023-05-16T10:12:49.288Z,12.58
2023-05-16T10:13:55.717Z,12.64
2023-05-16T10:15:02.873Z,12.54
2023-05-16T10:16:11.571Z,12.71
2023-05-16T10:17:19.231Z,12.62
2023-05-16T10:18:22.652Z,12.67
2023-05-16T10:19:28.944Z,12.73
2023-05-16T10:20:31.650Z,12.77
2023-05-16T10:21:36.709Z,12.91
2023-05-16T10:22:46.421Z,12.84
2023-05-16T10:23:52.107Z,12.90
2023-05-16T10:25:03.832Z,12.98
2023-05-16T10:26:09.283Z,13.04
2023-05-16T10:27:14.619Z,13.15
2023-05-16T10:28:17.272Z,13.06
2023-05-16T10:29:23.378Z,12.49
2023-05-16T10:30:31.638Z,12.62
2023-05-16T10:31:51.404Z,12.84
2023-05-16T10:32:54.086Z,12.97
2023-05-16T10:33:59.979Z,12.92
2023-05-16T10:35:03.790Z,12.97
2023-05-16T10:36:10.246Z,13.19
2023-05-16T10:37:15.203Z,13.01
2023-05-16T10:38:19.961Z,13.21
2023-05-16T10:39:25.938Z,13.44
2023-05-16T10:40:29.218Z,13.72
2023-05-16T10:41:34.461Z,13.22
2023-05-16T10:42:36.612Z,13.35
2023-05-16T10:43:43.843Z,13.47
2023-05-16T10:44:58.487Z,13.70
2023-05-16T10:46:14.414Z,13.47
2023-05-16T10:47:19.761Z,13.37
2023-05-16T10:48:32.282Z,13.28
2023-05-16T10:49:37.348Z,13.48
2023-05-16T10:50:43.976Z,13.35
2023-05-16T10:51:46.197Z,13.27
2023-05-16T10:52:55.934Z,12.88
2023-05-16T10:54:08.588Z,12.68
2023-05-16T10:55:10.756Z,12.78
2023-05-16T10:56:15.550Z,12.83
2023-05-16T10:57:21.082Z,12.77
2023-05-16T10:58:46.765Z,12.77
2023-05-16T10:59:52.839Z,12.66
2023-05-16T11:01:25.714Z,12.38
2023-05-16T11:02:42.958Z,12.25
2023-05-16T11:04:00.819Z,12.42
2023-05-16T11:05:06.072Z,12.49
2023-05-16T11:06:08.717Z,12.55
2023-05-16T11:07:14.054Z,12.41
2023-05-16T11:08:16.180Z,12.48
2023-05-16T11:09:24.143Z,12.23
2023-05-16T11:10:29.020Z,12.35
2023-05-16T11:11:44.362Z,12.53
2023-05-16T11:12:54.933Z,12.56
2023-05-16T11:13:57.101Z,12.52
2023-05-16T11:15:02.076Z,12.54
2023-05-16T11:16:30.728Z,12.63
2023-05-16T11:17:46.455Z,12.66
2023-05-16T11:18:51.025Z,12.82
2023-05-16T11:19:59.891Z,12.81
2023-05-16T11:21:04.381Z,12.84
2023-05-16T11:22:15.960Z,12.79
2023-05-16T11:23:23.227Z,13.00
2023-05-16T11:24:31.961Z,13.08
2023-05-16T11:25:41.566Z,13.20
2023-05-16T11:26:46.619Z,13.15
2023-05-16T11:27:51.856Z,13.15
2023-05-16T11:28:58.664Z,13.05
2023-05-16T11:30:13.820Z,13.02
2023-05-16T11:31:18.677Z,13.13
2023-05-16T11:32:23.999Z,12.92
2023-05-16T11:33:30.011Z,13.04
2023-05-16T11:34:32.737Z,12.52
2023-05-16T11:35:37.478Z,12.66
2023-05-16T11:36:40.754Z,12.66
2023-05-16T11:37:45.969Z,12.79
2023-05-16T11:38:50.700Z,12.91
2023-05-16T11:40:02.461Z,12.98
2023-05-16T11:41:06.813Z,13.16
2023-05-16T11:42:11.862Z,13.31
2023-05-16T11:43:22.968Z,13.35
2023-05-16T11:44:27.675Z,13.48
2023-05-16T11:45:32.620Z,13.51
2023-05-16T11:46:38.065Z,13.26
2023-05-16T11:47:48.282Z,13.38
2023-05-16T11:48:53.397Z,13.42
2023-05-16T11:49:58.196Z,13.47
2023-05-16T11:51:03.501Z,13.54
2023-05-16T11:52:08.775Z,13.14
2023-05-16T11:53:10.995Z,13.26
2023-05-16T11:54:16.580Z,13.17
2023-05-16T11:55:36.817Z,13.10
2023-05-16T11:56:46.529Z,13.04
2023-05-16T11:57:52.942Z,13.01
2023-05-16T11:58:55.359Z,12.86
2023-05-16T12:00:08.258Z,12.79
2023-05-16T12:01:13.175Z,12.80
2023-05-16T12:02:17.906Z,12.65
2023-05-16T12:03:26.064Z,12.63
2023-05-16T12:04:31.849Z,12.59
2023-05-16T12:05:37.285Z,12.77
2023-05-16T12:06:39.713Z,12.75
2023-05-16T12:07:46.832Z,12.72
2023-05-16T12:08:53.877Z,12.48
2023-05-16T12:09:58.559Z,12.69
2023-05-16T12:11:01.156Z,12.93
2023-05-16T12:12:08.227Z,12.99
2023-05-16T12:13:13.041Z,13.04
2023-05-16T12:14:16.019Z,13.14
2023-05-16T12:15:21.373Z,13.18
2023-05-16T12:16:24.119Z,13.33
2023-05-16T12:17:29.178Z,13.46
2023-05-16T12:18:41.121Z,13.56
2023-05-16T12:19:47.652Z,13.56
2023-05-16T12:20:50.194Z,13.54
2023-05-16T12:21:58.285Z,13.67
2023-05-16T12:23:00.591Z,13.46
2023-05-16T12:24:08.145Z,13.65
2023-05-16T12:25:25.255Z,13.82
2023-05-16T12:26:32.359Z,13.89
2023-05-16T12:27:34.586Z,13.87
2023-05-16T12:28:39.801Z,13.96
2023-05-16T12:29:50.504Z,13.74
2023-05-16T12:30:52.625Z,13.57
2023-05-16T12:31:57.593Z,13.77
2023-05-16T12:33:01.439Z,13.72
2023-05-16T12:34:18.746Z,13.73
2023-05-16T12:35:21.268Z,13.47
2023-05-16T12:36:26.599Z,13.42
2023-05-16T12:37:28.799Z,13.32
2023-05-16T12:38:33.614Z,13.24
2023-05-16T12:39:40.597Z,13.17
2023-05-16T12:40:46.205Z,13.08
2023-05-16T12:41:51.729Z,12.97
2023-05-16T12:42:56.798Z,12.71
2023-05-16T12:44:19.441Z,12.73
2023-05-16T12:45:23.485Z,12.53
2023-05-16T12:46:28.606Z,12.59
2023-05-16T12:47:39.235Z,12.36
2023-05-16T12:48:44.916Z,12.39
2023-05-16T12:49:52.535Z,12.32
2023-05-16T12:50:54.774Z,12.34
2023-05-16T12:52:05.924Z,12.35
2023-05-16T12:53:15.401Z,12.28
2023-05-16T12:54:20.684Z,12.28
2023-05-16T12:55:23.334Z,12.18
2023-05-16T12:56:28.108Z,12.06
2023-05-16T12:57:34.709Z,11.91
2023-05-16T12:58:40.581Z,11.77
2023-05-16T12:59:45.384Z,11.81
2023-05-16T13:00:50.098Z,11.70
2023-05-16T13:01:52.272Z,11.61
2023-05-16T13:02:57.137Z,11.65
2023-05-16T13:04:00.829Z,11.63
2023-05-16T13:05:10.497Z,11.57
2023-05-16T13:06:15.323Z,11.70
2023-05-16T13:07:20.071Z,11.67
2023-05-16T13:08:24.778Z,11.79
2023-05-16T13:09:32.675Z,11.76
2023-05-16T13:10:38.281Z,11.76
2023-05-16T13:12:19.150Z,12.04
2023-05-16T13:13:35.479Z,12.33
2023-05-16T13:14:43.070Z,12.39
2023-05-16T13:15:46.270Z,12.71
2023-05-16T13:16:50.983Z,12.73
2023-05-16T13:17:55.916Z,12.67
2023-05-16T13:19:00.748Z,12.84
2023-05-16T13:20:10.674Z,12.79
2023-05-16T13:21:12.950Z,12.81
2023-05-16T13:22:17.730Z,12.67
2023-05-16T13:23:19.835Z,12.34
2023-05-16T13:24:24.592Z,12.24
2023-05-16T13:25:29.497Z,12.23
2023-05-16T13:26:35.163Z,12.18
2023-05-16T13:27:40.390Z,12.14
2023-05-16T13:28:45.486Z,12.05
2023-05-16T13:29:47.871Z,12.06
2023-05-16T13:30:52.868Z,11.92
2023-05-16T13:31:57.715Z,12.01
2023-05-16T13:32:59.952Z,12.01
2023-05-16T13:34:04.784Z,11.93
2023-05-16T13:35:12.445Z,11.92
2023-05-16T13:36:18.568Z,12.04
2023-05-16T13:37:24.599Z,12.09
2023-05-16T13:38:29.910Z,12.04
2023-05-16T13:39:34.708Z,11.82
2023-05-16T13:40:39.758Z,11.94
2023-05-16T13:41:42.499Z,11.97
2023-05-16T13:42:47.351Z,11.94
2023-05-16T13:43:49.595Z,11.91
2023-05-16T13:44:54.581Z,11.82
2023-05-16T13:45:59.410Z,11.62
2023-05-16T13:47:04.330Z,11.67
2023-05-16T13:48:10.038Z,11.78
2023-05-16T13:49:12.260Z,11.70
2023-05-16T13:50:19.570Z,11.63
2023-05-16T13:51:24.556Z,11.58
2023-05-16T13:52:29.403Z,11.38
2023-05-16T13:53:31.522Z,11.36
2023-05-16T13:54:36.597Z,11.31
2023-05-16T13:55:38.822Z,11.12
2023-05-16T13:56:43.591Z,11.10
2023-05-16T13:57:48.444Z,11.02
2023-05-16T13:59:02.031Z,11.02
2023-05-16T14:01:20.131Z,10.89
2023-05-16T14:02:22.479Z,10.86
2023-05-16T14:03:27.296Z,10.94
2023-05-16T14:04:29.453Z,10.97
2023-05-16T14:05:40.174Z,10.95
2023-05-16T14:06:44.913Z,10.83
2023-05-16T14:07:47.580Z,10.65
2023-05-16T14:08:52.438Z,10.41
2023-05-16T14:09:57.313Z,10.43
2023-05-16T14:10:59.416Z,10.39
2023-05-16T14:12:05.687Z,10.32
2023-05-16T14:13:10.399Z,10.26
2023-05-16T14:14:15.156Z,10.30